createdAt,value
2018-11-12T00:00:21.194Z,23.17
2018-11-12T00:02:56.180Z,21.30
2018-11-12T00:05:27.072Z,21.77
2018-11-12T00:07:57.919Z,21.37
2018-11-12T00:10:28.753Z,21.40
2018-11-12T00:12:59.485Z,23.77
2018-11-12T00:15:30.231Z,24.57
2018-11-12T00:18:01.037Z,23.67
2018-11-12T00:20:32.915Z,25.67
2018-11-12T00:23:06.334Z,24.23
2018-11-12T00:25:37.172Z,27.30
2018-11-12T00:28:09.821Z,24.83
2018-11-12T00:30:40.571Z,23.80
2018-11-12T00:33:11.327Z,24.75
2018-11-12T00:35:42.939Z,23.23
2018-11-12T00:38:13.711Z,23.33
2018-11-12T00:40:44.589Z,23.40
2018-11-12T00:43:15.294Z,23.47
2018-11-12T00:45:47.753Z,25.40
2018-11-12T00:48:19.991Z,25.67
2018-11-12T00:50:52.428Z,26.83
2018-11-12T00:53:23.323Z,26.63
2018-11-12T00:55:54.057Z,26.10
2018-11-12T00:58:24.957Z,25.62
2018-11-12T01:00:56.088Z,24.93
2018-11-12T01:03:26.766Z,24.03
2018-11-12T01:05:57.480Z,23.80
2018-11-12T01:08:28.213Z,25.27
2018-11-12T01:10:59.075Z,27.13
2018-11-12T01:13:29.802Z,26.87
2018-11-12T01:16:00.642Z,28.00
2018-11-12T01:18:34.728Z,27.80
2018-11-12T01:21:10.829Z,28.63
2018-11-12T01:23:42.801Z,29.75
2018-11-12T01:26:13.646Z,29.02
2018-11-12T01:28:44.325Z,29.80
2018-11-12T01:31:15.128Z,29.33
2018-11-12T01:33:45.864Z,27.32
2018-11-12T01:36:16.622Z,27.60
2018-11-12T01:38:47.317Z,27.03
2018-11-12T01:41:18.050Z,28.70
2018-11-12T01:43:48.788Z,29.77
2018-11-12T01:46:19.468Z,29.77
2018-11-12T01:48:50.767Z,29.37
2018-11-12T01:51:21.422Z,28.40
2018-11-12T01:53:52.113Z,25.95
2018-11-12T01:56:22.837Z,22.82
2018-11-12T01:58:53.547Z,22.53
2018-11-12T02:01:24.238Z,24.03
2018-11-12T02:03:55.026Z,22.77
2018-11-12T02:06:26.358Z,22.93
2018-11-12T02:08:57.143Z,22.40
2018-11-12T02:11:27.847Z,23.12
2018-11-12T02:13:58.551Z,20.60
2018-11-12T02:16:29.360Z,21.60
2018-11-12T02:19:00.018Z,20.92
2018-11-12T02:21:33.311Z,21.12
2018-11-12T02:24:04.910Z,20.62
2018-11-12T02:26:35.605Z,19.15
2018-11-12T02:29:07.163Z,19.77
2018-11-12T02:31:37.962Z,20.97
2018-11-12T02:34:09.012Z,22.80
2018-11-12T02:36:41.700Z,23.12
2018-11-12T02:39:14.380Z,24.55
2018-11-12T02:41:45.163Z,25.52
2018-11-12T02:44:15.892Z,24.00
2018-11-12T02:46:47.102Z,23.25
2018-11-12T02:49:17.734Z,24.87
2018-11-12T02:51:48.470Z,21.82
2018-11-12T02:54:19.206Z,23.22
2018-11-12T02:56:50.042Z,24.47
2018-11-12T02:59:20.721Z,24.47
2018-11-12T03:01:51.911Z,25.20
2018-11-12T03:04:23.151Z,24.67
2018-11-12T03:06:54.042Z,23.53
2018-11-12T03:09:24.725Z,23.37
2018-11-12T03:11:55.517Z,24.40
2018-11-12T03:14:26.935Z,24.83
2018-11-12T03:16:57.714Z,25.13
2018-11-12T03:19:28.425Z,25.20
2018-11-12T03:21:59.131Z,25.53
2018-11-12T03:24:30.023Z,24.40
2018-11-12T03:27:05.096Z,26.55
2018-11-12T03:29:35.821Z,24.67
2018-11-12T03:32:07.847Z,25.23
2018-11-12T03:34:38.910Z,26.33
2018-11-12T03:37:09.817Z,25.53
2018-11-12T03:39:40.660Z,24.00
2018-11-12T03:42:11.338Z,24.53
2018-11-12T03:44:42.075Z,24.17
2018-11-12T03:47:12.861Z,23.40
2018-11-12T03:49:43.521Z,23.13
2018-11-12T03:52:14.403Z,25.37
2018-11-12T03:54:48.202Z,22.23
2018-11-12T03:57:18.968Z,22.67
2018-11-12T03:59:49.657Z,24.27
2018-11-12T04:02:20.390Z,25.20
2018-11-12T04:04:51.897Z,24.60
2018-11-12T04:07:22.779Z,27.20
2018-11-12T04:09:53.504Z,26.57
2018-11-12T04:12:24.256Z,26.83
2018-11-12T04:14:55.660Z,26.53
2018-11-12T04:17:26.392Z,28.03
2018-11-12T04:19:57.115Z,28.60
2018-11-12T04:22:27.839Z,27.30
2018-11-12T04:24:59.251Z,31.03
2018-11-12T04:27:30.085Z,29.87
2018-11-12T04:30:00.834Z,31.80
2018-11-12T04:32:34.952Z,31.80
2018-11-12T04:35:05.903Z,34.30
2018-11-12T04:37:36.713Z,34.07
2018-11-12T04:40:09.850Z,33.43
2018-11-12T04:42:41.109Z,33.23
2018-11-12T04:45:14.738Z,32.53
2018-11-12T04:47:46.157Z,31.60
2018-11-12T04:50:20.442Z,33.30
2018-11-12T04:52:54.240Z,29.47
2018-11-12T04:55:25.754Z,26.83
2018-11-12T04:57:56.427Z,24.53
2018-11-12T05:00:28.914Z,23.00
2018-11-12T05:02:59.936Z,21.70
2018-11-12T05:05:34.610Z,22.77
2018-11-12T05:08:07.850Z,21.83
2018-11-12T05:10:38.539Z,21.73
2018-11-12T05:13:09.258Z,23.67
2018-11-12T05:15:39.938Z,23.20
2018-11-12T05:18:11.243Z,23.13
2018-11-12T05:20:41.949Z,23.20
2018-11-12T05:23:12.814Z,22.37
2018-11-12T05:25:43.533Z,23.67
2018-11-12T05:28:17.077Z,23.80
2018-11-12T05:30:47.731Z,24.80
2018-11-12T05:33:18.547Z,22.47
2018-11-12T05:35:49.852Z,22.63
2018-11-12T05:38:20.728Z,23.37
2018-11-12T05:40:53.044Z,22.63
2018-11-12T05:43:23.802Z,21.70
2018-11-12T05:45:54.518Z,23.70
2018-11-12T05:48:25.302Z,21.50
2018-11-12T05:50:55.962Z,21.53
2018-11-12T05:53:26.724Z,21.70
2018-11-12T05:55:58.350Z,20.53
2018-11-12T05:58:35.358Z,16.93
2018-11-12T06:01:06.802Z,17.10
2018-11-12T06:03:38.314Z,16.47
2018-11-12T06:06:09.141Z,17.77
2018-11-12T06:08:39.837Z,16.73
2018-11-12T06:11:10.518Z,16.47
2018-11-12T06:13:41.282Z,17.40
2018-11-12T06:16:11.986Z,17.30
2018-11-12T06:18:42.690Z,17.90
2018-11-12T06:21:13.502Z,17.53
2018-11-12T06:23:44.329Z,17.83
2018-11-12T06:26:14.984Z,19.20
2018-11-12T06:28:45.718Z,18.30
2018-11-12T06:31:16.756Z,17.17
2018-11-12T06:33:47.415Z,17.07
2018-11-12T06:36:18.134Z,16.27
2018-11-12T06:38:48.840Z,16.20
2018-11-12T06:41:19.573Z,18.20
2018-11-12T06:43:50.310Z,16.47
2018-11-12T06:46:21.027Z,19.40
2018-11-12T06:48:51.814Z,19.90
2018-11-12T06:51:23.729Z,22.37
2018-11-12T06:53:54.445Z,22.97
2018-11-12T06:56:25.212Z,24.93
2018-11-12T06:58:56.040Z,26.07
2018-11-12T07:01:26.753Z,26.37
2018-11-12T07:03:57.461Z,25.93
2018-11-12T07:06:28.320Z,27.87
2018-11-12T07:08:59.003Z,27.83
2018-11-12T07:11:29.738Z,28.30
2018-11-12T07:14:18.186Z,27.23
2018-11-12T07:17:04.735Z,26.70
2018-11-12T07:19:51.160Z,29.63
2018-11-12T07:22:22.329Z,26.13
2018-11-12T07:24:53.014Z,26.70
2018-11-12T07:27:23.800Z,25.33
2018-11-12T07:29:54.557Z,22.53
2018-11-12T07:32:25.278Z,21.30
2018-11-12T07:34:56.387Z,20.57
2018-11-12T07:37:27.046Z,20.73
2018-11-12T07:39:57.788Z,19.73
2018-11-12T07:42:28.595Z,19.63
2018-11-12T07:44:59.877Z,20.93
2018-11-12T07:47:30.567Z,22.30
2018-11-12T07:50:06.354Z,21.37
2018-11-12T07:52:37.357Z,21.83
2018-11-12T07:55:11.764Z,19.70
2018-11-12T07:57:42.963Z,17.70
2018-11-12T08:00:19.056Z,17.43
2018-11-12T08:03:00.071Z,14.93
2018-11-12T08:05:36.267Z,16.57
2018-11-12T08:08:07.516Z,15.07
2018-11-12T08:10:38.426Z,16.07
2018-11-12T08:13:09.634Z,16.27
2018-11-12T08:15:40.461Z,15.07
2018-11-12T08:18:11.162Z,14.53
2018-11-12T08:20:41.886Z,14.07
2018-11-12T08:23:12.682Z,14.20
2018-11-12T08:25:43.402Z,12.80
2018-11-12T08:28:14.387Z,13.23
2018-11-12T08:30:49.417Z,12.87
2018-11-12T08:33:20.567Z,11.27
2018-11-12T08:35:51.314Z,10.83
2018-11-12T08:38:22.099Z,10.60
2018-11-12T08:40:53.370Z,12.10
2018-11-12T08:43:25.564Z,11.30
2018-11-12T08:45:56.254Z,11.00
2018-11-12T08:48:27.093Z,10.60
2018-11-12T08:50:57.808Z,11.40
2018-11-12T08:53:28.638Z,10.60
2018-11-12T08:56:00.039Z,11.83
2018-11-12T08:58:32.547Z,11.47
2018-11-12T09:01:06.154Z,10.93
2018-11-12T09:03:36.881Z,10.90
2018-11-12T09:06:07.945Z,10.53
2018-11-12T09:08:38.645Z,11.60
2018-11-12T09:11:09.314Z,11.23
2018-11-12T09:13:40.018Z,11.43
2018-11-12T09:16:10.730Z,10.57
2018-11-12T09:18:42.078Z,9.93
2018-11-12T09:21:12.851Z,9.53
2018-11-12T09:23:43.652Z,9.33
2018-11-12T09:26:42.792Z,10.10
2018-11-12T09:29:13.661Z,9.87
2018-11-12T09:31:44.397Z,9.83
2018-11-12T09:34:15.519Z,10.00
2018-11-12T09:36:46.329Z,10.67
2018-11-12T09:39:17.184Z,9.47
2018-11-12T09:41:48.843Z,9.10
2018-11-12T09:44:19.592Z,8.53
2018-11-12T09:46:50.393Z,8.47
2018-11-12T09:49:21.091Z,10.77
2018-11-12T09:51:52.091Z,8.40
2018-11-12T09:54:22.823Z,7.75
2018-11-12T09:56:53.455Z,7.20
2018-11-12T09:59:24.215Z,7.47
2018-11-12T10:01:55.317Z,7.12
2018-11-12T10:04:26.738Z,7.50
2018-11-12T10:06:58.183Z,6.95
2018-11-12T10:09:29.136Z,7.60
2018-11-12T10:12:02.969Z,14.98
2018-11-12T10:14:36.826Z,9.03
2018-11-12T10:17:08.692Z,7.97
2018-11-12T10:19:36.928Z,7.72
2018-11-12T10:22:07.889Z,8.15
2018-11-12T10:24:39.411Z,8.65
2018-11-12T10:27:10.511Z,7.33
2018-11-12T10:29:41.658Z,6.83
2018-11-12T10:32:12.313Z,7.53
2018-11-12T10:34:43.122Z,6.70
2018-11-12T10:37:14.582Z,7.00
2018-11-12T10:39:46.048Z,6.95
2018-11-12T10:42:16.758Z,5.92
2018-11-12T10:44:47.435Z,6.78
2018-11-12T10:47:18.081Z,8.05
2018-11-12T10:49:48.862Z,7.37
2018-11-12T10:52:19.543Z,6.37
2018-11-12T10:55:04.036Z,6.72
2018-11-12T10:57:22.400Z,7.50
2018-11-12T10:59:53.153Z,6.72
2018-11-12T11:02:31.622Z,6.22
2018-11-12T11:05:04.354Z,6.00
2018-11-12T11:07:35.084Z,7.08
2018-11-12T11:10:08.062Z,7.28
2018-11-12T11:12:38.826Z,7.08
2018-11-12T11:15:09.890Z,6.58
2018-11-12T11:17:40.646Z,7.10
2018-11-12T11:20:11.466Z,5.55
2018-11-12T11:22:42.178Z,7.20
2018-11-12T11:25:12.904Z,6.42
2018-11-12T11:27:43.683Z,8.10
2018-11-12T11:30:16.500Z,7.90
2018-11-12T11:32:47.690Z,8.68
2018-11-12T11:35:19.411Z,8.35
2018-11-12T11:37:50.214Z,7.50
2018-11-12T11:40:22.409Z,5.97
2018-11-12T11:42:54.080Z,5.62
2018-11-12T11:45:24.819Z,5.92
2018-11-12T11:47:55.589Z,6.42
2018-11-12T11:50:27.379Z,5.70
2018-11-12T11:52:58.113Z,5.60
2018-11-12T11:55:28.817Z,6.00
2018-11-12T11:57:59.554Z,6.08
2018-11-12T12:00:30.824Z,7.05
2018-11-12T12:03:04.363Z,6.10
2018-11-12T12:05:35.041Z,5.78
2018-11-12T12:08:08.302Z,5.40
2018-11-12T12:10:38.959Z,9.10
2018-11-12T12:13:09.955Z,5.97
2018-11-12T12:15:40.707Z,4.87
2018-11-12T12:18:11.449Z,4.97
2018-11-12T12:20:42.592Z,5.58
2018-11-12T12:23:14.331Z,5.20
2018-11-12T12:25:46.110Z,5.00
2018-11-12T12:28:16.857Z,5.55
2018-11-12T12:30:47.777Z,5.37
2018-11-12T12:33:18.518Z,6.45
2018-11-12T12:35:49.329Z,3.92
2018-11-12T12:38:20.142Z,4.53
2018-11-12T12:40:50.834Z,4.05
2018-11-12T12:43:21.644Z,4.20
2018-11-12T12:45:52.557Z,3.95
2018-11-12T12:48:23.540Z,3.50
2018-11-12T12:50:54.266Z,3.52
2018-11-12T12:53:24.968Z,3.50
2018-11-12T12:55:55.910Z,3.10
2018-11-12T12:58:26.677Z,2.92
2018-11-12T13:00:57.309Z,2.92
2018-11-12T13:03:28.035Z,3.10
2018-11-12T13:05:58.975Z,3.15
2018-11-12T13:08:29.797Z,2.95
2018-11-12T13:11:00.571Z,2.65
2018-11-12T13:13:34.676Z,3.40
2018-11-12T13:16:07.144Z,2.80
2018-11-12T13:18:37.960Z,2.83
2018-11-12T13:21:08.735Z,2.50
2018-11-12T13:23:39.499Z,2.60
2018-11-12T13:26:10.292Z,2.58
2018-11-12T13:28:41.031Z,2.20
2018-11-12T13:31:11.764Z,4.08
2018-11-12T13:33:42.501Z,2.33
2018-11-12T13:36:13.303Z,2.27
2018-11-12T13:38:44.077Z,2.50
2018-11-12T13:41:14.839Z,2.70
2018-11-12T13:43:46.018Z,2.50
2018-11-12T13:46:16.800Z,2.30
2018-11-12T13:48:48.107Z,2.98
2018-11-12T13:51:18.916Z,2.67
2018-11-12T13:53:49.832Z,2.50
2018-11-12T13:56:20.524Z,2.45
2018-11-12T13:58:51.336Z,2.58
2018-11-12T14:01:22.044Z,2.50
2018-11-12T14:03:52.942Z,2.67
2018-11-12T14:06:23.692Z,2.50
2018-11-12T14:08:55.906Z,2.50
2018-11-12T14:11:27.029Z,2.72
2018-11-12T14:13:58.076Z,2.35
2018-11-12T14:16:28.863Z,2.05
2018-11-12T14:18:59.559Z,2.80
2018-11-12T14:21:30.866Z,2.27
2018-11-12T14:24:04.969Z,2.87
2018-11-12T14:26:35.755Z,2.08
2018-11-12T14:29:06.671Z,2.58
2018-11-12T14:31:37.431Z,2.45
2018-11-12T14:34:08.993Z,2.22
2018-11-12T14:36:39.716Z,2.50
2018-11-12T14:39:11.332Z,2.40
2018-11-12T14:41:42.083Z,2.60
2018-11-12T14:44:12.801Z,2.20
2018-11-12T14:46:43.539Z,2.75
2018-11-12T14:49:14.384Z,5.40
2018-11-12T14:51:45.136Z,3.17
2018-11-12T14:54:15.878Z,3.27
2018-11-12T14:56:46.599Z,2.50
2018-11-12T14:59:17.470Z,2.30
2018-11-12T15:01:49.150Z,3.17
2018-11-12T15:04:19.948Z,2.85
2018-11-12T15:06:50.710Z,3.20
2018-11-12T15:09:22.118Z,2.52
2018-11-12T15:11:52.856Z,2.10
2018-11-12T15:14:23.583Z,1.80
2018-11-12T15:28:11.267Z,5.20
2018-11-12T15:30:41.756Z,6.05
2018-11-12T15:33:12.395Z,2.85
2018-11-12T15:35:42.828Z,3.20
2018-11-12T15:38:13.400Z,3.25
2018-11-12T15:40:43.845Z,3.10
2018-11-12T15:43:14.671Z,3.70
2018-11-12T15:45:46.606Z,2.67
2018-11-12T15:48:16.463Z,3.27
2018-11-12T15:50:46.929Z,2.33
2018-11-12T15:53:17.706Z,2.90
2018-11-12T15:55:48.265Z,3.05
2018-11-12T15:58:18.713Z,3.60
2018-11-12T16:00:49.144Z,2.58
2018-11-12T16:03:20.451Z,2.70
2018-11-12T16:05:50.985Z,2.15
2018-11-12T16:08:21.448Z,2.25
2018-11-12T16:10:51.919Z,2.72
2018-11-12T16:13:22.420Z,3.00
2018-11-12T16:15:52.816Z,3.60
2018-11-12T16:18:23.336Z,3.90
2018-11-12T16:20:54.544Z,3.42
2018-11-12T16:23:25.765Z,3.72
2018-11-12T16:25:56.428Z,4.10
2018-11-12T16:28:26.861Z,5.20
2018-11-12T16:30:57.340Z,5.70
2018-11-12T16:33:27.884Z,6.42
2018-11-12T16:35:59.648Z,5.12
2018-11-12T16:38:30.177Z,5.47
2018-11-12T16:41:00.636Z,5.50
2018-11-12T16:43:34.900Z,6.20
2018-11-12T16:46:06.607Z,7.05
2018-11-12T16:48:37.144Z,8.63
2018-11-12T16:51:07.960Z,8.55
2018-11-12T16:53:38.513Z,9.60
2018-11-12T16:56:08.925Z,9.45
2018-11-12T16:58:40.143Z,7.65
2018-11-12T17:01:11.051Z,9.10
2018-11-12T17:03:41.865Z,8.80
2018-11-12T17:06:12.443Z,9.40
2018-11-12T17:08:42.916Z,8.23
2018-11-12T17:11:13.388Z,7.55
2018-11-12T17:13:43.836Z,7.62
2018-11-12T17:16:14.298Z,7.83
2018-11-12T17:18:44.740Z,8.08
2018-11-12T17:21:15.147Z,7.62
2018-11-12T17:23:47.229Z,9.50
2018-11-12T17:26:17.732Z,8.48
2018-11-12T17:28:49.464Z,6.47
2018-11-12T17:31:19.886Z,7.17
2018-11-12T17:33:50.327Z,7.95
2018-11-12T17:36:20.957Z,7.45
2018-11-12T17:38:52.238Z,15.70
2018-11-12T17:41:22.772Z,16.83
2018-11-12T17:43:53.747Z,13.45
2018-11-12T17:46:24.184Z,11.22
2018-11-12T17:48:54.582Z,9.50
2018-11-12T17:51:25.073Z,17.27
2018-11-12T17:53:55.568Z,11.57
2018-11-12T17:56:26.048Z,10.10
2018-11-12T17:58:56.493Z,10.85
2018-11-12T18:01:27.041Z,9.28
2018-11-12T18:03:57.572Z,8.78
2018-11-12T18:06:28.130Z,8.25
2018-11-12T18:08:58.576Z,9.68
2018-11-12T18:11:29.273Z,12.05
2018-11-12T18:14:18.027Z,10.85
2018-11-12T18:16:50.008Z,12.00
2018-11-12T18:19:20.805Z,11.90
2018-11-12T18:21:55.206Z,10.93
2018-11-12T18:24:25.928Z,12.55
2018-11-12T18:26:58.301Z,15.65
2018-11-12T18:29:30.001Z,17.03
2018-11-12T18:32:00.808Z,15.98
2018-11-12T18:34:33.078Z,16.42
2018-11-12T18:37:09.173Z,16.47
2018-11-12T18:39:39.931Z,16.80
2018-11-12T18:42:10.733Z,17.70
2018-11-12T18:44:41.455Z,19.85
2018-11-12T18:47:12.199Z,19.13
2018-11-12T18:49:42.890Z,19.57
2018-11-12T18:52:13.680Z,30.95
2018-11-12T18:54:44.428Z,31.30
2018-11-12T18:57:15.124Z,19.30
2018-11-12T18:59:45.806Z,15.40
2018-11-12T19:02:16.607Z,16.32
2018-11-12T19:04:47.334Z,60.20
2018-11-12T19:07:18.103Z,40.40
2018-11-12T19:09:48.859Z,34.73
2018-11-12T19:12:19.523Z,35.63
2018-11-12T19:14:50.253Z,35.50
2018-11-12T19:17:20.958Z,30.88
2018-11-12T19:19:51.707Z,25.95
2018-11-12T19:22:22.383Z,25.68
2018-11-12T19:24:53.113Z,25.00
2018-11-12T19:27:23.839Z,22.17
2018-11-12T19:29:54.582Z,20.23
2018-11-12T19:32:25.315Z,21.47
2018-11-12T19:34:56.019Z,35.07
2018-11-12T19:37:26.705Z,30.20
2018-11-12T19:39:57.617Z,20.33
2018-11-12T19:42:28.890Z,19.60
2018-11-12T19:44:59.605Z,18.67
2018-11-12T19:47:30.338Z,18.87
2018-11-12T19:50:04.309Z,19.60
2018-11-12T19:52:35.058Z,20.87
2018-11-12T19:55:08.485Z,21.47
2018-11-12T19:57:39.208Z,20.83
2018-11-12T20:00:12.608Z,22.67
2018-11-12T20:02:44.543Z,21.63
2018-11-12T20:05:15.335Z,21.20
2018-11-12T20:07:46.253Z,25.70
2018-11-12T20:10:20.083Z,25.63
2018-11-12T20:12:51.197Z,37.60
2018-11-12T20:15:23.116Z,33.33
2018-11-12T20:17:54.487Z,24.03
2018-11-12T20:20:27.232Z,21.13
2018-11-12T20:22:58.005Z,22.20
2018-11-12T20:25:28.710Z,20.23
2018-11-12T20:27:59.868Z,19.67
2018-11-12T20:30:37.222Z,18.90
2018-11-12T20:33:08.009Z,20.27
2018-11-12T20:35:38.715Z,20.90
2018-11-12T20:38:10.514Z,23.00
2018-11-12T20:40:41.241Z,23.60
2018-11-12T20:43:12.018Z,23.57
2018-11-12T20:45:42.758Z,26.93
2018-11-12T20:48:14.268Z,27.43
2018-11-12T20:50:45.027Z,27.80
2018-11-12T20:53:15.759Z,33.07
2018-11-12T20:55:46.662Z,32.73
2018-11-12T20:58:17.461Z,35.83
2018-11-12T21:00:48.469Z,27.90
2018-11-12T21:03:20.372Z,28.27
2018-11-12T21:05:51.187Z,25.67
2018-11-12T21:08:21.896Z,24.47
2018-11-12T21:10:52.664Z,25.73
2018-11-12T21:13:23.527Z,27.30
2018-11-12T21:15:54.822Z,27.93
2018-11-12T21:18:25.583Z,27.63
2018-11-12T21:20:56.959Z,25.07
2018-11-12T21:23:27.794Z,26.90
2018-11-12T21:25:59.204Z,22.17
2018-11-12T21:28:31.688Z,25.27
2018-11-12T21:31:03.989Z,27.23
2018-11-12T21:33:35.158Z,24.43
2018-11-12T21:36:06.583Z,26.27
2018-11-12T21:38:37.844Z,30.37
2018-11-12T21:41:08.817Z,29.90
2018-11-12T21:43:39.731Z,30.27
2018-11-12T21:46:10.554Z,32.03
2018-11-12T21:48:43.419Z,32.03
2018-11-12T21:51:14.432Z,30.90
2018-11-12T21:53:46.309Z,34.93
2018-11-12T21:56:18.027Z,47.40
2018-11-12T21:58:49.558Z,35.23
2018-11-12T22:01:20.564Z,35.40
2018-11-12T22:03:51.529Z,39.93
2018-11-12T22:06:22.319Z,50.90
2018-11-12T22:08:53.227Z,64.17
2018-11-12T22:11:24.031Z,57.57
2018-11-12T22:13:54.844Z,53.90
2018-11-12T22:16:25.684Z,64.83
2018-11-12T22:18:59.026Z,54.53
2018-11-12T22:21:33.423Z,44.57
2018-11-12T22:24:06.436Z,37.87
2018-11-12T22:26:38.383Z,30.60
2018-11-12T22:29:09.495Z,30.00
2018-11-12T22:31:40.523Z,39.90
2018-11-12T22:34:11.330Z,40.63
2018-11-12T22:36:42.713Z,48.87
2018-11-12T22:39:13.610Z,48.00
2018-11-12T22:41:44.411Z,44.63
2018-11-12T22:44:15.258Z,39.33
2018-11-12T22:46:46.623Z,31.87
2018-11-12T22:49:17.379Z,29.50
2018-11-12T22:51:48.375Z,32.50
2018-11-12T22:54:19.317Z,33.47
2018-11-12T22:56:50.109Z,31.53
2018-11-12T22:59:28.026Z,29.17
2018-11-12T23:01:59.405Z,25.40
2018-11-12T23:04:30.385Z,24.40
2018-11-12T23:07:06.901Z,26.13
2018-11-12T23:09:37.667Z,28.83
2018-11-12T23:12:08.715Z,26.37
2018-11-12T23:14:39.588Z,25.80
2018-11-12T23:17:11.236Z,24.30
2018-11-12T23:19:43.580Z,24.37
2018-11-12T23:22:14.367Z,23.37
2018-11-12T23:24:45.118Z,27.07
2018-11-12T23:27:15.999Z,27.83
2018-11-12T23:29:46.825Z,29.20
2018-11-12T23:32:17.511Z,33.27
2018-11-12T23:34:48.418Z,30.43
2018-11-12T23:37:19.184Z,30.50
2018-11-12T23:39:49.906Z,31.00
2018-11-12T23:42:20.745Z,30.90
2018-11-12T23:44:52.258Z,27.17
2018-11-12T23:47:22.951Z,24.13
2018-11-12T23:49:53.842Z,24.63
2018-11-12T23:52:24.564Z,26.67
2018-11-12T23:54:55.304Z,27.37
2018-11-12T23:57:32.441Z,27.77
